createdAt,value
2018-07-25T00:01:35.135Z,23.30
2018-07-25T00:04:02.933Z,23.30
2018-07-25T00:06:30.641Z,23.20
2018-07-25T00:08:58.419Z,23.20
2018-07-25T00:11:26.079Z,23.20
2018-07-25T00:13:53.787Z,23.20
2018-07-25T00:16:21.418Z,23.10
2018-07-25T00:18:49.110Z,23.10
2018-07-25T00:21:16.820Z,23.00
2018-07-25T00:23:44.495Z,23.00
2018-07-25T00:26:12.141Z,23.00
2018-07-25T00:28:39.772Z,22.90
2018-07-25T00:31:07.464Z,22.90
2018-07-25T00:33:35.113Z,22.80
2018-07-25T00:36:02.840Z,22.80
2018-07-25T00:38:30.503Z,22.80
2018-07-25T00:40:58.331Z,22.70
2018-07-25T00:43:25.952Z,22.70
2018-07-25T00:45:53.624Z,22.70
2018-07-25T00:48:21.286Z,22.70
2018-07-25T00:50:48.962Z,22.70
2018-07-25T00:53:16.611Z,22.60
2018-07-25T00:55:44.727Z,22.60
2018-07-25T00:58:12.060Z,22.60
2018-07-25T01:00:39.781Z,22.60
2018-07-25T01:03:07.567Z,22.50
2018-07-25T01:05:35.226Z,22.50
2018-07-25T01:08:02.946Z,22.50
2018-07-25T01:10:30.737Z,22.50
2018-07-25T01:12:58.387Z,22.50
2018-07-25T01:15:26.036Z,22.50
2018-07-25T01:17:53.724Z,22.40
2018-07-25T01:20:21.399Z,22.40
2018-07-25T01:22:49.060Z,22.40
2018-07-25T01:25:16.743Z,22.40
2018-07-25T01:27:44.527Z,22.40
2018-07-25T01:30:12.258Z,22.40
2018-07-25T01:32:39.915Z,22.40
2018-07-25T01:35:07.575Z,22.30
2018-07-25T01:37:35.268Z,22.30
2018-07-25T01:40:02.985Z,22.30
2018-07-25T01:42:30.672Z,22.20
2018-07-25T01:44:58.453Z,22.20
2018-07-25T01:47:26.120Z,22.20
2018-07-25T01:49:53.795Z,22.20
2018-07-25T01:52:21.459Z,22.10
2018-07-25T01:54:49.160Z,22.10
2018-07-25T01:57:16.816Z,22.10
2018-07-25T01:59:44.588Z,22.00
2018-07-25T02:02:12.401Z,22.10
2018-07-25T02:04:40.119Z,22.00
2018-07-25T02:07:07.791Z,22.00
2018-07-25T02:09:35.474Z,22.00
2018-07-25T02:12:03.128Z,22.00
2018-07-25T02:14:30.899Z,21.90
2018-07-25T02:16:58.546Z,21.90
2018-07-25T02:19:26.269Z,21.90
2018-07-25T02:21:53.936Z,21.90
2018-07-25T02:24:21.608Z,21.90
2018-07-25T02:26:49.271Z,21.80
2018-07-25T02:29:17.569Z,21.80
2018-07-25T02:31:45.247Z,21.80
2018-07-25T02:34:18.543Z,21.80
2018-07-25T02:36:46.236Z,21.80
2018-07-25T02:39:13.953Z,21.80
2018-07-25T02:41:42.504Z,21.80
2018-07-25T02:44:10.141Z,21.70
2018-07-25T02:46:37.909Z,21.70
2018-07-25T02:49:05.742Z,21.70
2018-07-25T02:51:33.832Z,21.60
2018-07-25T02:54:01.795Z,21.50
2018-07-25T02:56:29.735Z,21.50
2018-07-25T02:58:57.679Z,21.50
2018-07-25T03:01:25.360Z,21.50
2018-07-25T03:03:53.094Z,21.50
2018-07-25T03:06:20.769Z,21.50
2018-07-25T03:08:48.424Z,21.50
2018-07-25T03:11:16.087Z,21.40
2018-07-25T03:13:43.752Z,21.40
2018-07-25T03:16:11.376Z,21.30
2018-07-25T03:18:39.007Z,21.30
2018-07-25T03:21:06.832Z,21.30
2018-07-25T03:23:35.392Z,21.30
2018-07-25T03:26:03.262Z,21.30
2018-07-25T03:28:31.204Z,21.10
2018-07-25T03:30:59.532Z,21.10
2018-07-25T03:33:27.303Z,21.10
2018-07-25T03:35:56.251Z,21.00
2018-07-25T03:38:24.072Z,21.10
2018-07-25T03:40:51.735Z,21.10
2018-07-25T03:43:19.370Z,21.10
2018-07-25T03:45:47.058Z,21.10
2018-07-25T03:48:14.715Z,21.10
2018-07-25T03:50:42.388Z,21.10
2018-07-25T03:53:10.200Z,21.10
2018-07-25T03:55:37.876Z,21.10
2018-07-25T03:58:05.634Z,21.10
2018-07-25T04:00:33.536Z,21.20
2018-07-25T04:03:01.192Z,21.20
2018-07-25T04:05:28.834Z,21.20
2018-07-25T04:07:56.601Z,21.20
2018-07-25T04:10:24.237Z,21.10
2018-07-25T04:12:52.039Z,21.10
2018-07-25T04:15:19.651Z,21.10
2018-07-25T04:17:48.092Z,21.10
2018-07-25T04:20:16.853Z,21.10
2018-07-25T04:22:44.559Z,21.10
2018-07-25T04:25:12.223Z,21.10
2018-07-25T04:27:43.692Z,21.20
2018-07-25T04:30:12.553Z,21.20
2018-07-25T04:32:41.235Z,21.20
2018-07-25T04:35:10.149Z,21.20
2018-07-25T04:37:37.808Z,21.20
2018-07-25T04:40:07.028Z,21.30
2018-07-25T04:42:34.808Z,21.30
2018-07-25T04:45:03.732Z,21.40
2018-07-25T04:47:31.425Z,21.40
2018-07-25T04:49:59.779Z,21.40
2018-07-25T04:52:27.423Z,21.40
2018-07-25T04:54:55.199Z,21.40
2018-07-25T04:57:22.859Z,21.50
2018-07-25T04:59:50.557Z,21.50
2018-07-25T05:02:18.263Z,21.60
2018-07-25T05:04:45.902Z,21.60
2018-07-25T05:07:13.624Z,21.70
2018-07-25T05:09:41.267Z,21.70
2018-07-25T05:12:09.059Z,21.80
2018-07-25T05:14:36.740Z,21.80
2018-07-25T05:17:04.515Z,21.80
2018-07-25T05:19:32.219Z,21.90
2018-07-25T05:21:59.888Z,21.90
2018-07-25T05:24:27.532Z,21.90
2018-07-25T05:26:55.334Z,22.00
2018-07-25T05:29:23.222Z,22.10
2018-07-25T05:31:50.936Z,22.10
2018-07-25T05:34:18.617Z,22.10
2018-07-25T05:36:46.344Z,22.20
2018-07-25T05:39:14.043Z,22.20
2018-07-25T05:41:42.407Z,22.30
2018-07-25T05:44:10.114Z,22.30
2018-07-25T05:46:38.203Z,22.30
2018-07-25T05:49:06.183Z,22.30
2018-07-25T05:51:33.999Z,22.30
2018-07-25T05:54:01.859Z,22.30
2018-07-25T05:56:29.539Z,22.40
2018-07-25T05:58:57.664Z,22.50
2018-07-25T06:01:25.718Z,22.50
2018-07-25T06:03:53.562Z,22.60
2018-07-25T06:06:21.420Z,22.70
2018-07-25T06:08:49.098Z,22.80
2018-07-25T06:11:16.779Z,22.80
2018-07-25T06:13:44.510Z,22.90
2018-07-25T06:16:12.186Z,23.00
2018-07-25T06:18:39.843Z,23.00
2018-07-25T06:21:07.300Z,23.00
2018-07-25T06:23:34.960Z,23.10
2018-07-25T06:26:02.639Z,23.20
2018-07-25T06:28:30.284Z,23.20
2018-07-25T06:30:58.088Z,23.20
2018-07-25T06:33:25.823Z,23.30
2018-07-25T06:35:53.483Z,23.40
2018-07-25T06:38:21.124Z,23.50
2018-07-25T06:40:48.827Z,23.60
2018-07-25T06:43:16.558Z,23.70
2018-07-25T06:45:44.316Z,23.70
2018-07-25T06:48:12.014Z,23.80
2018-07-25T06:50:39.740Z,23.90
2018-07-25T06:53:07.371Z,23.90
2018-07-25T06:55:35.035Z,24.00
2018-07-25T06:58:02.686Z,24.10
2018-07-25T07:00:30.364Z,24.20
2018-07-25T07:02:58.286Z,24.30
2018-07-25T07:05:25.944Z,24.30
2018-07-25T07:07:53.632Z,24.40
2018-07-25T07:10:21.283Z,24.50
2018-07-25T07:12:48.981Z,24.70
2018-07-25T07:15:16.700Z,24.70
2018-07-25T07:17:44.496Z,24.90
2018-07-25T07:20:12.205Z,25.00
2018-07-25T07:22:39.856Z,25.00
2018-07-25T07:25:07.706Z,25.10
2018-07-25T07:27:35.464Z,25.10
2018-07-25T07:30:03.226Z,25.20
2018-07-25T07:32:31.050Z,25.20
2018-07-25T07:34:58.765Z,25.40
2018-07-25T07:37:26.541Z,25.50
2018-07-25T07:39:54.203Z,25.60
2018-07-25T07:42:21.907Z,25.60
2018-07-25T07:44:49.665Z,25.60
2018-07-25T07:47:17.456Z,25.70
2018-07-25T07:49:45.121Z,25.80
2018-07-25T07:52:12.859Z,26.00
2018-07-25T07:54:40.489Z,26.10
2018-07-25T07:57:08.184Z,26.20
2018-07-25T07:59:35.904Z,26.30
2018-07-25T08:02:03.768Z,26.40
2018-07-25T08:04:31.596Z,26.50
2018-07-25T08:06:59.236Z,26.70
2018-07-25T08:09:26.940Z,26.80
2018-07-25T08:11:54.595Z,26.90
2018-07-25T08:14:22.299Z,26.90
2018-07-25T08:16:49.971Z,27.00
2018-07-25T08:19:17.772Z,27.10
2018-07-25T08:21:45.452Z,27.20
2018-07-25T08:24:13.114Z,27.20
2018-07-25T08:26:40.804Z,27.40
2018-07-25T08:29:08.462Z,27.50
2018-07-25T08:31:36.150Z,27.50
2018-07-25T08:34:03.784Z,27.60
2018-07-25T08:36:31.552Z,27.70
2018-07-25T08:38:59.192Z,27.70
2018-07-25T08:41:26.903Z,27.70
2018-07-25T08:43:54.539Z,27.80
2018-07-25T08:46:22.231Z,27.80
2018-07-25T08:48:49.866Z,27.90
2018-07-25T08:51:17.530Z,27.90
2018-07-25T08:53:45.200Z,28.10
2018-07-25T08:56:12.892Z,28.20
2018-07-25T08:58:40.761Z,28.30
2018-07-25T09:01:08.375Z,28.40
2018-07-25T09:03:36.053Z,28.40
2018-07-25T09:06:03.724Z,28.50
2018-07-25T09:08:31.504Z,28.60
2018-07-25T09:10:59.180Z,28.70
2018-07-25T09:13:26.902Z,28.60
2018-07-25T09:15:54.563Z,28.70
2018-07-25T09:18:22.240Z,29.00
2018-07-25T09:20:49.927Z,29.00
2018-07-25T09:23:17.711Z,29.10
2018-07-25T09:25:45.348Z,29.20
2018-07-25T09:28:13.028Z,29.30
2018-07-25T09:30:40.715Z,29.40
2018-07-25T09:33:08.347Z,29.50
2018-07-25T09:35:36.029Z,29.70
2018-07-25T09:38:03.963Z,29.80
2018-07-25T09:40:31.769Z,29.90
2018-07-25T09:42:59.435Z,30.00
2018-07-25T09:45:27.140Z,30.10
2018-07-25T09:47:54.828Z,30.30
2018-07-25T09:50:22.511Z,30.50
2018-07-25T09:52:50.274Z,30.60
2018-07-25T09:55:17.940Z,30.80
2018-07-25T09:57:45.621Z,30.90
2018-07-25T10:00:17.964Z,30.90
2018-07-25T10:02:45.775Z,30.90
2018-07-25T10:05:13.494Z,31.00
2018-07-25T10:07:41.195Z,31.10
2018-07-25T10:10:08.855Z,31.10
2018-07-25T10:12:36.644Z,31.20
2018-07-25T10:15:04.789Z,31.20
2018-07-25T10:17:32.472Z,31.20
2018-07-25T10:20:00.160Z,31.30
2018-07-25T10:22:27.876Z,31.20
2018-07-25T10:27:23.388Z,31.20
2018-07-25T10:29:50.953Z,31.30
2018-07-25T10:32:18.649Z,31.30
2018-07-25T10:34:46.331Z,31.20
2018-07-25T10:37:14.039Z,31.20
2018-07-25T10:39:41.757Z,31.20
2018-07-25T10:42:09.746Z,31.20
2018-07-25T10:44:37.426Z,31.30
2018-07-25T10:47:05.136Z,31.40
2018-07-25T10:49:32.877Z,31.30
2018-07-25T10:52:00.565Z,31.30
2018-07-25T10:54:28.278Z,31.30
2018-07-25T10:56:55.972Z,31.40
2018-07-25T10:59:23.755Z,31.50
2018-07-25T11:01:51.464Z,31.70
2018-07-25T11:06:54.849Z,31.90
2018-07-25T11:09:29.258Z,31.90
2018-07-25T11:12:01.549Z,32.00
2018-07-25T11:14:29.388Z,32.10
2018-07-25T11:17:05.682Z,32.00
2018-07-25T11:19:33.429Z,31.90
2018-07-25T11:22:01.100Z,32.00
2018-07-25T11:24:28.778Z,32.00
2018-07-25T11:26:56.556Z,32.10
2018-07-25T11:29:24.377Z,32.10
2018-07-25T11:31:52.116Z,32.10
2018-07-25T11:34:25.814Z,32.40
2018-07-25T11:36:54.146Z,32.60
2018-07-25T11:39:21.832Z,32.70
2018-07-25T11:41:49.499Z,33.00
2018-07-25T11:44:18.116Z,33.10
2018-07-25T11:46:45.880Z,33.20
2018-07-25T11:49:13.552Z,33.20
2018-07-25T11:51:41.280Z,33.30
2018-07-25T11:54:08.964Z,33.40
2018-07-25T11:56:36.694Z,33.30
2018-07-25T11:59:04.833Z,33.40
2018-07-25T12:01:32.612Z,33.40
2018-07-25T12:04:00.354Z,33.60
2018-07-25T12:06:28.138Z,33.90
2018-07-25T12:08:55.753Z,34.10
2018-07-25T12:11:23.476Z,34.30
2018-07-25T12:13:51.168Z,34.40
2018-07-25T12:16:19.028Z,34.50
2018-07-25T12:18:46.904Z,34.50
2018-07-25T12:21:14.768Z,34.40
2018-07-25T12:23:42.476Z,34.40
2018-07-25T12:26:10.221Z,34.60
2018-07-25T12:28:37.920Z,34.70
2018-07-25T12:31:05.915Z,34.80
2018-07-25T12:33:33.676Z,34.80
2018-07-25T12:36:01.556Z,34.80
2018-07-25T12:38:29.312Z,35.00
2018-07-25T12:40:57.062Z,35.00
2018-07-25T12:43:24.808Z,35.20
2018-07-25T12:45:52.547Z,35.30
2018-07-25T12:48:20.413Z,35.40
2018-07-25T12:50:48.107Z,35.30
2018-07-25T12:53:15.862Z,35.40
2018-07-25T12:55:43.536Z,35.40
2018-07-25T12:58:11.332Z,35.50
2018-07-25T13:00:39.238Z,35.60
2018-07-25T13:03:06.995Z,35.70
2018-07-25T13:05:34.903Z,35.60
2018-07-25T13:08:02.788Z,35.60
2018-07-25T13:10:30.626Z,35.60
2018-07-25T13:12:58.341Z,35.80
2018-07-25T13:15:26.101Z,35.90
2018-07-25T13:17:53.841Z,36.00
2018-07-25T13:20:21.675Z,36.20
2018-07-25T13:22:49.462Z,36.40
2018-07-25T13:25:17.168Z,36.50
2018-07-25T13:27:44.904Z,36.40
2018-07-25T13:30:12.707Z,36.40
2018-07-25T13:32:40.487Z,36.40
2018-07-25T13:35:08.238Z,36.40
2018-07-25T13:37:36.115Z,36.30
2018-07-25T13:40:04.324Z,36.20
2018-07-25T13:42:32.159Z,36.20
2018-07-25T13:44:59.991Z,36.30
2018-07-25T13:47:27.691Z,36.30
2018-07-25T13:49:55.432Z,36.40
2018-07-25T13:52:23.142Z,36.40
2018-07-25T13:54:51.008Z,36.40
2018-07-25T13:57:18.755Z,36.50
2018-07-25T13:59:46.618Z,36.40
2018-07-25T14:02:14.540Z,36.40
2018-07-25T14:04:42.267Z,36.60
2018-07-25T14:07:10.011Z,36.80
2018-07-25T14:09:37.823Z,36.60
2018-07-25T14:12:05.761Z,36.40
2018-07-25T14:14:33.508Z,36.10
2018-07-25T14:17:01.280Z,35.60
2018-07-25T14:19:28.997Z,35.30
2018-07-25T14:21:56.771Z,34.90
2018-07-25T14:24:24.594Z,34.70
2018-07-25T14:26:52.401Z,34.30
2018-07-25T14:29:20.244Z,34.10
2018-07-25T14:31:47.956Z,33.80
2018-07-25T14:34:15.686Z,33.40
2018-07-25T14:36:43.404Z,33.10
2018-07-25T14:39:11.611Z,33.10
2018-07-25T14:41:40.023Z,33.10
2018-07-25T14:44:08.050Z,32.90
2018-07-25T14:46:35.871Z,32.90
2018-07-25T14:49:03.692Z,33.10
2018-07-25T14:51:31.519Z,33.10
2018-07-25T14:53:59.584Z,33.00
2018-07-25T14:56:27.596Z,33.10
2018-07-25T14:58:55.576Z,33.30
2018-07-25T15:01:23.303Z,33.40
2018-07-25T15:03:51.055Z,33.40
2018-07-25T15:06:18.776Z,33.40
2018-07-25T15:08:46.495Z,33.50
2018-07-25T15:11:14.199Z,33.40
2018-07-25T15:13:41.967Z,33.60
2018-07-25T15:16:09.737Z,33.70
2018-07-25T15:18:37.475Z,33.80
2018-07-25T15:21:05.276Z,33.80
2018-07-25T15:23:44.288Z,34.00
2018-07-25T15:26:11.911Z,34.00
2018-07-25T15:28:39.684Z,34.00
2018-07-25T15:31:07.536Z,34.10
2018-07-25T15:33:35.254Z,34.10
2018-07-25T15:36:03.096Z,34.10
2018-07-25T15:38:30.788Z,34.10
2018-07-25T15:40:58.536Z,34.00
2018-07-25T15:43:26.320Z,34.00
2018-07-25T15:45:54.189Z,34.00
2018-07-25T15:48:21.976Z,33.90
2018-07-25T15:50:49.695Z,34.00
2018-07-25T15:53:17.413Z,34.10
2018-07-25T15:55:45.201Z,34.10
2018-07-25T15:58:12.783Z,34.10
2018-07-25T16:00:40.675Z,34.10
2018-07-25T16:03:08.570Z,34.10
2018-07-25T16:05:36.271Z,34.30
2018-07-25T16:08:04.054Z,34.20
2018-07-25T16:10:31.753Z,34.30
2018-07-25T16:12:59.483Z,34.30
2018-07-25T16:15:27.212Z,34.30
2018-07-25T16:17:55.156Z,34.30
2018-07-25T16:20:22.857Z,34.30
2018-07-25T16:23:31.847Z,34.20
2018-07-25T16:26:04.983Z,34.10
2018-07-25T16:28:32.712Z,34.10
2018-07-25T16:31:00.412Z,34.10
2018-07-25T16:33:28.119Z,34.10
2018-07-25T16:35:56.077Z,34.00
2018-07-25T16:38:24.291Z,34.00
2018-07-25T16:40:52.091Z,33.90
2018-07-25T16:43:19.766Z,33.80
2018-07-25T16:45:47.559Z,33.80
2018-07-25T16:48:15.535Z,33.70
2018-07-25T16:50:43.399Z,33.70
2018-07-25T16:53:11.128Z,33.70
2018-07-25T16:55:38.897Z,33.70
2018-07-25T16:58:06.704Z,33.60
2018-07-25T17:00:34.639Z,33.50
2018-07-25T17:03:02.369Z,33.50
2018-07-25T17:05:30.230Z,33.30
2018-07-25T17:07:57.929Z,33.20
2018-07-25T17:10:25.713Z,33.20
2018-07-25T17:12:53.475Z,33.20
2018-07-25T17:15:21.212Z,33.20
2018-07-25T17:17:48.956Z,33.10
2018-07-25T17:20:16.829Z,33.10
2018-07-25T17:22:44.631Z,33.10
2018-07-25T17:25:12.394Z,33.00
2018-07-25T17:27:40.184Z,33.10
2018-07-25T17:30:08.227Z,33.10
2018-07-25T17:32:36.213Z,33.10
2018-07-25T17:35:04.289Z,33.00
2018-07-25T17:37:32.111Z,33.00
2018-07-25T17:39:59.915Z,33.00
2018-07-25T17:42:27.607Z,33.10
2018-07-25T17:44:55.348Z,33.10
2018-07-25T17:47:23.080Z,33.00
2018-07-25T17:49:50.807Z,32.90
2018-07-25T17:52:18.700Z,32.80
2018-07-25T17:54:46.498Z,32.70
2018-07-25T17:57:14.212Z,32.40
2018-07-25T17:59:42.100Z,32.30
2018-07-25T18:02:09.825Z,32.10
2018-07-25T18:04:37.596Z,32.10
2018-07-25T18:07:05.318Z,32.00
2018-07-25T18:09:33.404Z,31.90
2018-07-25T18:12:01.188Z,31.80
2018-07-25T18:14:28.943Z,31.70
2018-07-25T18:16:56.680Z,31.40
2018-07-25T18:19:24.404Z,31.30
2018-07-25T18:21:52.139Z,31.20
2018-07-25T18:24:20.043Z,31.10
2018-07-25T18:26:48.340Z,31.10
2018-07-25T18:29:16.197Z,31.20
2018-07-25T18:31:43.837Z,31.30
2018-07-25T18:34:11.539Z,31.30
2018-07-25T18:36:39.472Z,31.20
2018-07-25T18:39:09.798Z,31.00
2018-07-25T18:41:38.221Z,31.00
2018-07-25T18:44:06.097Z,31.00
2018-07-25T18:46:34.129Z,31.00
2018-07-25T18:49:02.212Z,30.70
2018-07-25T18:51:30.230Z,30.70
2018-07-25T18:53:58.014Z,30.60
2018-07-25T18:56:26.153Z,30.50
2018-07-25T18:58:54.036Z,30.40
2018-07-25T19:01:22.061Z,30.40
2018-07-25T19:03:49.839Z,30.40
2018-07-25T19:06:17.814Z,30.30
2018-07-25T19:08:46.376Z,30.10
2018-07-25T19:11:14.320Z,30.20
2018-07-25T19:13:46.531Z,30.20
2018-07-25T19:16:14.540Z,30.30
2018-07-25T19:18:42.584Z,30.20
2018-07-25T19:21:10.335Z,30.30
2018-07-25T19:23:38.293Z,30.30
2018-07-25T19:26:06.428Z,30.30
2018-07-25T19:28:34.508Z,30.30
2018-07-25T19:31:02.519Z,30.40
2018-07-25T19:33:30.550Z,30.40
2018-07-25T19:35:58.585Z,30.40
2018-07-25T19:38:26.432Z,30.30
2018-07-25T19:40:54.425Z,30.30
2018-07-25T19:43:22.573Z,30.20
2018-07-25T19:45:50.321Z,30.20
2018-07-25T19:48:18.033Z,30.20
2018-07-25T19:50:45.988Z,30.10
2018-07-25T19:53:13.916Z,30.00
2018-07-25T19:55:41.680Z,30.00
2018-07-25T19:58:09.472Z,29.90
2018-07-25T20:00:37.346Z,29.80
2018-07-25T20:03:05.679Z,29.70
2018-07-25T20:05:33.659Z,29.70
2018-07-25T20:08:01.854Z,29.60
2018-07-25T20:10:29.600Z,29.50
2018-07-25T20:12:57.375Z,29.40
2018-07-25T20:15:30.910Z,29.40
2018-07-25T20:17:58.933Z,29.20
